Time;durP1;ratioP1;P1;durP2;ratioP2;P2;SDS_P1;SDS_P2;PMS_P1;PMS_P2;Temp;Humidity;BMP_temperature;BMP_pressure;BME280_temperature;BME280_humidity;BME280_pressure;Samples;Min_cycle;Max_cycle;Signal;HPM_P1;HPM_P2
2023/07/13 00:00:23;;;;;;;2.05;1.88;;;15.50;99.90;;;;;;5009100;28;20030;-62
2023/07/13 00:02:48;;;;;;;3.85;2.20;;;15.50;99.90;;;;;;5003535;28;20076;-61
2023/07/13 00:05:14;;;;;;;2.55;2.25;;;15.40;99.90;;;;;;5004746;28;20492;-60
2023/07/13 00:07:40;;;;;;;3.53;2.10;;;15.40;99.90;;;;;;5002560;28;20493;-61
2023/07/13 00:10:06;;;;;;;4.70;2.40;;;15.40;99.90;;;;;;5004206;28;20022;-62
2023/07/13 00:12:35;;;;;;;3.28;2.35;;;15.30;99.90;;;;;;4999795;28;20022;-61
2023/07/13 00:15:04;;;;;;;2.05;1.85;;;15.30;99.90;;;;;;5000899;28;20030;-62
2023/07/13 00:17:30;;;;;;;3.63;2.45;;;15.30;99.90;;;;;;4991023;28;20022;-61
2023/07/13 00:19:56;;;;;;;4.50;2.40;;;15.30;99.90;;;;;;5008800;28;20080;-61
2023/07/13 00:22:26;;;;;;;7.80;2.72;;;15.30;99.90;;;;;;5002927;28;20045;-61
2023/07/13 00:24:55;;;;;;;3.25;2.30;;;15.20;99.90;;;;;;5003681;28;20036;-60
2023/07/13 00:27:21;;;;;;;2.95;1.95;;;15.20;99.90;;;;;;5008072;28;20058;-61
2023/07/13 00:29:46;;;;;;;3.92;2.70;;;15.10;99.90;;;;;;5004529;28;20065;-61
2023/07/13 00:32:12;;;;;;;3.10;2.10;;;15.10;99.90;;;;;;5007135;28;20025;-60
2023/07/13 00:34:38;;;;;;;4.70;2.38;;;15.00;99.90;;;;;;5003211;28;20552;-60
2023/07/13 00:37:06;;;;;;;4.03;2.17;;;15.00;99.90;;;;;;5009467;28;20030;-61
2023/07/13 00:39:32;;;;;;;5.55;2.78;;;15.10;99.90;;;;;;5003419;28;20037;-61
2023/07/13 00:41:58;;;;;;;3.20;2.50;;;15.10;99.90;;;;;;5003811;28;20038;-60
2023/07/13 00:44:24;;;;;;;6.75;3.10;;;15.00;99.90;;;;;;5006178;28;20125;-60
2023/07/13 00:46:50;;;;;;;4.28;2.70;;;15.00;99.90;;;;;;4998223;28;20090;-61
2023/07/13 00:49:19;;;;;;;4.25;2.92;;;15.00;99.90;;;;;;5005049;28;20458;-61
2023/07/13 00:51:54;;;;;;;6.57;3.00;;;15.00;99.90;;;;;;5002610;28;20049;-60
2023/07/13 00:54:38;;;;;;;5.05;3.70;;;15.00;99.90;;;;;;5003867;28;20054;-60
2023/07/13 00:57:09;;;;;;;5.43;3.42;;;14.90;99.90;;;;;;5004077;28;20062;-61
2023/07/13 00:59:36;;;;;;;5.53;3.53;;;14.90;99.90;;;;;;5005011;28;20033;-61
2023/07/13 01:02:02;;;;;;;3.40;2.80;;;14.80;99.90;;;;;;5003310;28;20089;-60
2023/07/13 01:04:28;;;;;;;4.60;2.90;;;14.80;99.90;;;;;;5005436;28;20026;-61
2023/07/13 01:06:54;;;;;;;5.47;3.00;;;14.70;99.90;;;;;;5009676;28;20032;-61
2023/07/13 01:09:20;;;;;;;3.40;2.53;;;14.60;99.90;;;;;;5003132;28;20026;-61
2023/07/13 01:11:46;;;;;;;3.55;2.78;;;14.60;99.90;;;;;;5008470;28;20014;-61
2023/07/13 01:14:12;;;;;;;4.88;3.22;;;14.60;99.90;;;;;;5009107;28;20515;-59
2023/07/13 01:16:40;;;;;;;3.67;2.53;;;14.60;99.90;;;;;;5008629;28;20093;-61
2023/07/13 01:19:35;;;;;;;5.40;2.50;;;14.50;99.90;;;;;;5009871;28;20022;-61
2023/07/13 01:22:02;;;;;;;3.45;2.85;;;14.50;99.90;;;;;;5007880;28;20484;-61
2023/07/13 01:24:28;;;;;;;6.25;3.33;;;14.50;99.90;;;;;;5010112;28;20443;-60
2023/07/13 01:26:54;;;;;;;5.43;3.30;;;14.50;99.90;;;;;;5008447;28;20026;-60
2023/07/13 01:29:20;;;;;;;4.32;3.25;;;14.50;99.90;;;;;;5004496;28;20084;-61
2023/07/13 01:31:46;;;;;;;5.47;3.28;;;14.50;99.90;;;;;;5010726;28;20026;-60
2023/07/13 01:34:12;;;;;;;5.00;3.65;;;14.50;99.90;;;;;;5011569;28;20021;-60
2023/07/13 01:36:37;;;;;;;6.45;4.00;;;14.50;99.90;;;;;;5010503;28;20440;-60
2023/07/13 01:39:03;;;;;;;4.95;3.83;;;14.40;99.90;;;;;;5012417;28;20026;-61
2023/07/13 01:41:29;;;;;;;6.88;3.47;;;14.40;99.90;;;;;;5009591;28;20017;-60
2023/07/13 01:43:54;;;;;;;4.53;4.05;;;14.40;99.90;;;;;;5006939;28;20508;-60
2023/07/13 01:46:20;;;;;;;4.72;3.47;;;14.40;99.90;;;;;;5008802;28;20030;-60
2023/07/13 01:48:45;;;;;;;3.22;2.95;;;14.40;99.90;;;;;;5005950;28;20022;-60
2023/07/13 01:51:11;;;;;;;4.80;3.63;;;14.40;99.90;;;;;;5007945;28;20108;-60
2023/07/13 01:53:37;;;;;;;6.72;3.88;;;14.40;99.90;;;;;;5004833;28;20022;-61
2023/07/13 01:56:05;;;;;;;6.53;3.92;;;14.40;99.90;;;;;;5006544;28;20061;-62
2023/07/13 01:58:31;;;;;;;3.78;3.35;;;14.30;99.90;;;;;;5003893;28;20022;-61
2023/07/13 02:00:56;;;;;;;5.03;3.33;;;14.30;99.90;;;;;;5011008;28;20022;-63
2023/07/13 02:03:22;;;;;;;5.10;3.65;;;14.30;99.90;;;;;;5003964;28;20022;-61
2023/07/13 02:05:47;;;;;;;4.47;3.30;;;14.30;99.90;;;;;;5008631;28;20030;-61
2023/07/13 02:08:13;;;;;;;4.40;3.40;;;14.30;99.90;;;;;;5008985;28;20033;-61
2023/07/13 02:10:38;;;;;;;5.15;3.70;;;14.30;99.90;;;;;;5002090;28;20508;-60
2023/07/13 02:13:06;;;;;;;3.72;3.42;;;14.30;99.90;;;;;;5010481;28;20084;-61
2023/07/13 02:15:32;;;;;;;4.18;3.78;;;14.30;99.90;;;;;;5007978;28;20018;-61
2023/07/13 02:17:58;;;;;;;5.22;3.30;;;14.30;99.90;;;;;;5005339;28;20037;-61
2023/07/13 02:20:24;;;;;;;8.30;4.05;;;14.30;99.90;;;;;;5008757;28;20026;-61
2023/07/13 02:22:50;;;;;;;4.00;3.65;;;14.20;99.90;;;;;;5010201;28;20555;-58
2023/07/13 02:25:15;;;;;;;5.43;3.45;;;14.20;99.90;;;;;;5009542;28;20120;-61
2023/07/13 02:27:41;;;;;;;4.15;3.75;;;14.20;99.90;;;;;;5008407;28;20026;-60
2023/07/13 02:30:07;;;;;;;4.70;3.90;;;14.20;99.90;;;;;;4999417;28;20037;-61
2023/07/13 02:32:33;;;;;;;5.35;3.75;;;14.20;99.90;;;;;;5010425;28;20104;-61
2023/07/13 02:34:59;;;;;;;7.13;4.13;;;14.20;99.90;;;;;;5010528;28;20046;-61
2023/07/13 02:37:25;;;;;;;4.90;3.90;;;14.20;99.90;;;;;;5005539;28;20565;-61
2023/07/13 02:39:50;;;;;;;4.10;3.70;;;14.20;99.90;;;;;;5002057;28;20482;-61
2023/07/13 02:42:16;;;;;;;7.03;4.35;;;14.20;99.90;;;;;;5004224;28;20060;-61
2023/07/13 02:44:41;;;;;;;4.80;4.30;;;14.20;99.90;;;;;;5000894;28;20030;-61
2023/07/13 02:47:07;;;;;;;6.80;4.03;;;14.20;99.90;;;;;;5011207;28;20032;-61
2023/07/13 02:49:33;;;;;;;6.70;4.07;;;14.20;99.90;;;;;;5000649;28;20109;-60
2023/07/13 02:51:58;;;;;;;5.10;4.13;;;14.20;99.90;;;;;;5011072;28;20112;-60
2023/07/13 02:54:24;;;;;;;4.90;4.18;;;14.20;99.90;;;;;;5000001;28;20033;-60
2023/07/13 02:56:49;;;;;;;4.45;4.05;;;14.10;99.90;;;;;;5010771;28;20134;-61
2023/07/13 02:59:15;;;;;;;5.03;4.20;;;14.20;99.90;;;;;;5001409;28;20548;-61
2023/07/13 03:01:41;;;;;;;5.93;4.43;;;14.10;99.90;;;;;;5008438;28;20038;-61
2023/07/13 03:04:06;;;;;;;3.85;3.55;;;14.10;99.90;;;;;;5008188;28;20022;-60
2023/07/13 03:06:33;;;;;;;5.38;4.25;;;14.10;99.90;;;;;;5006629;28;20368;-61
2023/07/13 03:08:59;;;;;;;4.40;4.00;;;14.10;99.90;;;;;;5007384;28;20033;-61
2023/07/13 03:11:25;;;;;;;5.38;4.63;;;14.10;99.90;;;;;;5006785;28;20030;-60
2023/07/13 03:13:52;;;;;;;5.60;3.95;;;14.10;99.90;;;;;;5007271;28;20098;-61
2023/07/13 03:16:17;;;;;;;4.43;4.03;;;14.10;99.90;;;;;;5006331;28;20025;-60
2023/07/13 03:18:43;;;;;;;4.82;4.15;;;14.10;99.90;;;;;;5005401;28;20026;-60
2023/07/13 03:21:10;;;;;;;5.00;4.50;;;14.10;99.90;;;;;;5005924;28;20053;-61
2023/07/13 03:23:35;;;;;;;4.65;4.10;;;14.10;99.90;;;;;;5002954;28;20030;-61
2023/07/13 03:26:10;;;;;;;5.53;4.65;;;14.10;99.90;;;;;;5005832;28;20036;-61
2023/07/13 03:28:35;;;;;;;6.45;4.45;;;14.10;99.90;;;;;;5003743;28;20026;-60
2023/07/13 03:31:09;;;;;;;5.15;4.75;;;14.10;99.90;;;;;;4999130;28;20041;-60
2023/07/13 03:33:35;;;;;;;5.00;4.53;;;14.10;99.90;;;;;;5007709;28;20017;-60
2023/07/13 03:36:03;;;;;;;4.70;4.20;;;14.10;99.90;;;;;;5003558;28;20384;-59
2023/07/13 03:38:28;;;;;;;5.65;5.03;;;14.10;99.90;;;;;;5008766;28;20560;-61
2023/07/13 03:40:54;;;;;;;8.90;5.60;;;14.20;99.90;;;;;;4995191;28;20182;-60
2023/07/13 03:43:20;;;;;;;8.18;5.35;;;14.10;99.90;;;;;;5008921;28;20037;-61
2023/07/13 03:45:46;;;;;;;6.03;4.63;;;14.20;99.90;;;;;;5001289;28;20026;-59
2023/07/13 03:48:12;;;;;;;5.43;4.93;;;14.10;99.90;;;;;;5008257;28;20029;-60
2023/07/13 03:50:38;;;;;;;5.53;4.60;;;14.10;99.90;;;;;;5002202;28;20798;-60
2023/07/13 03:53:04;;;;;;;6.82;4.97;;;14.10;99.90;;;;;;5007444;28;20100;-61
2023/07/13 03:55:30;;;;;;;5.03;4.28;;;14.10;99.90;;;;;;4999972;28;20023;-60
2023/07/13 03:58:30;;;;;;;5.40;4.70;;;14.10;99.90;;;;;;5008297;28;20528;-61
2023/07/13 04:00:57;;;;;;;11.60;5.55;;;14.20;99.90;;;;;;4985998;28;20080;-60
2023/07/13 04:03:23;;;;;;;8.48;5.10;;;14.10;99.90;;;;;;5006439;28;20431;-60
2023/07/13 04:05:49;;;;;;;7.15;4.63;;;14.10;99.90;;;;;;5002978;28;20021;-61
2023/07/13 04:08:15;;;;;;;4.88;4.45;;;14.10;99.90;;;;;;5002529;28;20409;-61
2023/07/13 04:10:42;;;;;;;5.25;4.78;;;14.10;99.90;;;;;;5003466;28;20110;-63
2023/07/13 04:13:07;;;;;;;5.85;4.82;;;14.10;99.90;;;;;;5003804;28;20069;-60
2023/07/13 04:15:33;;;;;;;7.03;5.03;;;14.10;99.90;;;;;;5002453;28;20042;-61
2023/07/13 04:17:59;;;;;;;5.65;4.80;;;14.20;99.90;;;;;;5009127;28;20132;-61
2023/07/13 04:20:25;;;;;;;4.93;4.43;;;14.20;99.90;;;;;;5007007;28;20416;-60
2023/07/13 04:22:52;;;;;;;8.55;4.80;;;14.20;99.90;;;;;;5004844;28;20036;-61
2023/07/13 04:25:18;;;;;;;7.10;5.00;;;14.20;99.90;;;;;;5004778;28;20105;-61
2023/07/13 04:27:44;;;;;;;5.05;4.55;;;14.20;99.90;;;;;;5007785;28;20033;-61
2023/07/13 04:30:10;;;;;;;5.75;4.60;;;14.30;99.90;;;;;;5002930;28;20033;-61
2023/07/13 04:32:35;;;;;;;5.95;4.65;;;14.30;99.90;;;;;;5007247;28;20072;-60
2023/07/13 04:35:01;;;;;;;8.23;5.55;;;14.30;99.90;;;;;;5003208;28;20026;-60
2023/07/13 04:37:27;;;;;;;4.65;4.25;;;14.30;99.90;;;;;;5007841;28;20033;-61
2023/07/13 04:39:52;;;;;;;6.18;4.30;;;14.40;99.90;;;;;;5007345;28;20104;-61
2023/07/13 04:42:18;;;;;;;6.20;4.50;;;14.50;99.90;;;;;;5001571;28;20543;-60
2023/07/13 04:44:51;;;;;;;4.85;4.40;;;14.50;99.90;;;;;;5011371;28;20038;-60
2023/07/13 04:47:17;;;;;;;6.63;5.00;;;14.50;99.90;;;;;;5004962;28;20064;-61
2023/07/13 04:49:43;;;;;;;7.57;4.65;;;14.50;99.90;;;;;;5011584;28;20030;-61
2023/07/13 04:52:08;;;;;;;7.35;4.65;;;14.50;99.90;;;;;;5008446;28;20025;-59
2023/07/13 04:54:35;;;;;;;9.90;4.53;;;14.50;99.90;;;;;;5010236;28;20038;-60
2023/07/13 04:57:00;;;;;;;10.88;4.30;;;14.50;99.90;;;;;;5005451;28;20040;-60
2023/07/13 04:59:26;;;;;;;6.80;4.43;;;14.50;99.90;;;;;;5009382;28;20038;-59
2023/07/13 05:01:52;;;;;;;5.32;4.82;;;14.50;99.90;;;;;;5008575;28;20033;-59
2023/07/13 05:04:18;;;;;;;5.30;4.55;;;14.50;99.90;;;;;;5023527;28;20034;-57
2023/07/13 05:06:43;;;;;;;5.68;4.00;;;14.50;99.90;;;;;;5006873;28;20389;-59
2023/07/13 05:09:09;;;;;;;6.13;4.53;;;14.60;99.90;;;;;;5007737;28;20447;-59
2023/07/13 05:11:35;;;;;;;6.22;3.65;;;14.60;99.90;;;;;;5006525;28;20109;-59
2023/07/13 05:14:01;;;;;;;9.23;4.68;;;14.70;99.90;;;;;;5006547;28;20049;-59
2023/07/13 05:16:27;;;;;;;5.07;4.15;;;14.70;99.90;;;;;;5005386;28;20022;-59
2023/07/13 05:18:53;;;;;;;10.90;5.55;;;14.80;99.90;;;;;;5009417;28;20109;-57
2023/07/13 05:21:18;;;;;;;7.10;4.32;;;15.00;99.90;;;;;;5009627;28;20109;-59
2023/07/13 05:23:44;;;;;;;12.15;4.88;;;15.00;99.90;;;;;;5008408;28;20400;-58
2023/07/13 05:26:10;;;;;;;6.03;4.22;;;15.10;99.90;;;;;;5011324;28;20049;-59
2023/07/13 05:28:36;;;;;;;7.70;4.25;;;15.20;99.90;;;;;;5004055;28;20109;-60
2023/07/13 05:31:02;;;;;;;7.05;4.68;;;15.30;99.90;;;;;;5008557;28;20400;-57
2023/07/13 05:33:28;;;;;;;7.07;4.05;;;15.30;99.90;;;;;;5009636;28;20022;-59
2023/07/13 05:35:54;;;;;;;6.30;4.15;;;15.50;99.90;;;;;;5005547;28;20015;-59
2023/07/13 05:38:19;;;;;;;6.97;4.63;;;15.50;99.90;;;;;;5010506;28;20026;-58
2023/07/13 05:40:46;;;;;;;9.82;4.35;;;15.60;99.90;;;;;;5003479;28;20401;-58
2023/07/13 05:43:13;;;;;;;7.53;3.85;;;15.60;99.90;;;;;;5002084;28;20030;-58
2023/07/13 05:45:39;;;;;;;9.85;5.07;;;15.60;99.90;;;;;;5008591;28;20036;-57
2023/07/13 05:48:05;;;;;;;4.68;3.90;;;15.70;99.90;;;;;;5002155;28;20148;-58
2023/07/13 05:50:30;;;;;;;10.25;4.70;;;15.70;99.90;;;;;;5010008;28;20061;-58
2023/07/13 05:52:56;;;;;;;7.45;4.13;;;15.70;99.90;;;;;;5000923;28;20034;-56
2023/07/13 05:55:22;;;;;;;8.18;4.05;;;15.70;99.90;;;;;;5010897;28;20022;-55
2023/07/13 05:57:47;;;;;;;12.38;4.45;;;15.70;99.90;;;;;;4999432;28;20037;-57
2023/07/13 06:00:13;;;;;;;12.85;4.93;;;15.80;99.90;;;;;;5009802;28;20041;-58
2023/07/13 06:02:39;;;;;;;7.95;4.07;;;15.80;99.90;;;;;;5005583;28;20031;-57
2023/07/13 06:05:05;;;;;;;6.60;4.18;;;15.90;99.90;;;;;;5007806;28;20033;-57
2023/07/13 06:07:31;;;;;;;8.57;4.28;;;15.90;99.90;;;;;;5005605;28;20018;-58
2023/07/13 06:09:56;;;;;;;7.10;4.63;;;15.90;99.90;;;;;;5008695;28;20113;-58
2023/07/13 06:12:22;;;;;;;8.20;4.32;;;16.00;99.90;;;;;;5007126;28;20015;-55
2023/07/13 06:14:47;;;;;;;6.78;4.30;;;16.00;99.90;;;;;;5007406;28;20057;-55
2023/07/13 06:17:13;;;;;;;12.95;4.68;;;16.00;99.90;;;;;;5008248;28;20459;-57
2023/07/13 06:19:39;;;;;;;8.55;4.40;;;16.00;99.90;;;;;;5009234;28;20045;-58
2023/07/13 06:22:04;;;;;;;7.68;4.03;;;16.00;99.90;;;;;;5005504;28;20117;-58
2023/07/13 06:24:30;;;;;;;4.00;3.10;;;16.00;99.90;;;;;;4999888;28;20061;-57
2023/07/13 06:26:56;;;;;;;9.85;4.18;;;16.10;99.90;;;;;;5010731;28;20044;-58
2023/07/13 06:29:21;;;;;;;9.75;3.83;;;16.10;99.90;;;;;;5002875;28;20026;-57
2023/07/13 06:31:47;;;;;;;6.50;3.92;;;16.20;99.90;;;;;;5008817;28;20084;-58
2023/07/13 06:34:12;;;;;;;7.03;3.90;;;16.20;99.90;;;;;;5004698;28;20049;-55
2023/07/13 06:36:38;;;;;;;9.35;4.25;;;16.30;99.90;;;;;;5008562;28;20121;-58
2023/07/13 06:39:04;;;;;;;6.78;3.53;;;16.30;99.90;;;;;;5000470;28;20031;-57
2023/07/13 06:41:30;;;;;;;7.68;4.07;;;16.40;99.90;;;;;;5007240;28;20112;-58
2023/07/13 06:43:56;;;;;;;9.80;4.15;;;16.50;99.90;;;;;;5009996;28;20472;-58
2023/07/13 06:46:23;;;;;;;4.95;3.35;;;16.50;99.90;;;;;;5006284;28;20030;-57
2023/07/13 06:48:49;;;;;;;7.47;4.00;;;16.60;99.90;;;;;;5009350;28;20396;-59
2023/07/13 06:51:14;;;;;;;8.10;3.78;;;16.70;99.90;;;;;;5006128;28;20022;-57
2023/07/13 06:53:40;;;;;;;7.63;3.25;;;16.80;99.90;;;;;;5008349;28;20455;-55
2023/07/13 06:56:06;;;;;;;11.07;4.50;;;16.80;99.90;;;;;;5004587;28;20439;-57
2023/07/13 06:58:33;;;;;;;8.95;3.58;;;16.90;99.90;;;;;;5007972;28;20014;-58
2023/07/13 07:00:59;;;;;;;6.07;2.83;;;16.90;99.90;;;;;;5008975;28;20041;-57
2023/07/13 07:03:24;;;;;;;6.95;3.20;;;17.00;99.90;;;;;;5006863;28;20026;-57
2023/07/13 07:05:50;;;;;;;6.72;2.88;;;17.00;99.90;;;;;;5008610;28;20022;-58
2023/07/13 07:08:15;;;;;;;5.97;3.10;;;17.10;99.90;;;;;;5008636;28;20547;-56
2023/07/13 07:10:42;;;;;;;6.88;2.67;;;17.20;99.90;;;;;;5007931;28;20392;-57
2023/07/13 07:13:08;;;;;;;4.03;2.83;;;17.30;99.90;;;;;;5004559;28;20034;-60
2023/07/13 07:15:35;;;;;;;5.68;3.20;;;17.30;99.90;;;;;;5006984;28;20088;-58
2023/07/13 07:18:00;;;;;;;8.50;2.67;;;17.40;99.90;;;;;;5009619;28;20034;-57
2023/07/13 07:20:26;;;;;;;6.65;2.58;;;17.40;99.90;;;;;;5008839;28;20033;-59
2023/07/13 07:22:52;;;;;;;4.30;3.35;;;17.50;99.90;;;;;;5003389;28;20022;-57
2023/07/13 07:25:18;;;;;;;5.05;2.95;;;17.60;99.90;;;;;;5005043;28;20030;-58
2023/07/13 07:27:44;;;;;;;8.57;3.30;;;17.70;99.90;;;;;;5007194;28;20029;-56
2023/07/13 07:30:10;;;;;;;6.13;3.03;;;17.70;99.90;;;;;;5000948;28;20029;-58
2023/07/13 07:32:35;;;;;;;6.28;2.50;;;17.80;99.90;;;;;;5009530;28;20018;-58
2023/07/13 07:35:01;;;;;;;10.52;2.88;;;17.80;99.90;;;;;;5008339;28;20037;-59
2023/07/13 07:37:26;;;;;;;8.15;2.97;;;17.90;99.90;;;;;;5007605;28;20026;-59
2023/07/13 07:39:52;;;;;;;10.45;3.05;;;18.10;99.90;;;;;;5009378;28;20556;-60
2023/07/13 07:42:18;;;;;;;4.90;2.55;;;18.20;99.90;;;;;;5005273;28;20665;-59
2023/07/13 07:44:43;;;;;;;5.88;3.05;;;18.40;99.90;;;;;;5003087;28;20064;-59
2023/07/13 07:47:09;;;;;;;10.23;2.85;;;18.60;99.90;;;;;;5005997;28;20377;-60
2023/07/13 07:49:36;;;;;;;5.53;2.10;;;18.80;99.90;;;;;;5002427;28;20026;-61
2023/07/13 07:52:01;;;;;;;8.90;2.42;;;19.00;99.90;;;;;;5004879;28;20506;-60
2023/07/13 07:54:27;;;;;;;10.43;3.05;;;19.20;99.90;;;;;;5000952;28;20032;-61
2023/07/13 07:56:53;;;;;;;6.65;2.20;;;19.10;99.90;;;;;;5004175;28;20400;-61
2023/07/13 07:59:19;;;;;;;5.60;2.78;;;19.10;99.90;;;;;;5001789;28;20122;-63
2023/07/13 08:01:46;;;;;;;5.57;2.42;;;19.30;99.90;;;;;;5008242;28;20038;-61
2023/07/13 08:04:12;;;;;;;5.72;2.38;;;19.40;99.90;;;;;;5001845;28;20020;-61
2023/07/13 08:06:37;;;;;;;2.75;1.70;;;19.40;99.90;;;;;;5007351;28;20026;-59
2023/07/13 08:09:04;;;;;;;5.95;2.22;;;19.40;99.90;;;;;;5003016;28;20510;-61
2023/07/13 08:11:30;;;;;;;6.05;2.35;;;19.40;99.90;;;;;;5006841;28;20355;-61
2023/07/13 08:13:55;;;;;;;6.45;1.92;;;19.40;99.90;;;;;;5006137;28;20037;-61
2023/07/13 08:16:21;;;;;;;6.40;2.10;;;19.40;99.90;;;;;;5009639;28;20058;-62
2023/07/13 08:18:47;;;;;;;3.55;1.63;;;19.40;99.90;;;;;;5012871;28;20022;-61
2023/07/13 08:21:12;;;;;;;4.60;2.30;;;19.60;99.90;;;;;;5008859;28;20025;-61
2023/07/13 08:23:38;;;;;;;5.63;1.92;;;19.80;99.90;;;;;;5011125;28;20030;-61
2023/07/13 08:26:04;;;;;;;7.47;2.17;;;19.90;99.90;;;;;;5004113;28;20040;-59
2023/07/13 08:28:30;;;;;;;7.05;2.28;;;20.10;99.90;;;;;;5007781;28;20501;-60
2023/07/13 08:31:01;;;;;;;4.47;2.10;;;20.20;99.90;;;;;;5011619;28;20172;-60
2023/07/13 08:33:27;;;;;;;4.07;1.90;;;20.20;99.90;;;;;;5004585;28;20112;-62
2023/07/13 08:35:52;;;;;;;4.53;1.98;;;20.20;99.90;;;;;;5011339;28;20109;-62
2023/07/13 08:38:18;;;;;;;5.72;2.80;;;20.00;99.90;;;;;;5008436;28;20030;-61
2023/07/13 08:40:55;;;;;;;4.03;2.10;;;20.00;99.90;;;;;;5010067;28;20037;-61
2023/07/13 08:43:26;;;;;;;3.47;2.10;;;20.00;99.90;;;;;;5006636;28;20313;-62
2023/07/13 08:46:10;;;;;;;5.18;2.03;;;20.10;99.90;;;;;;5004569;28;20366;-61
2023/07/13 08:48:59;;;;;;;4.78;2.10;;;20.10;99.90;;;;;;5010821;28;20583;-61
2023/07/13 08:51:45;;;;;;;5.35;2.70;;;20.30;99.90;;;;;;4999049;28;20048;-61
2023/07/13 08:54:24;;;;;;;6.93;2.47;;;20.40;99.90;;;;;;5007402;28;20403;-61
2023/07/13 08:56:52;;;;;;;4.28;2.08;;;20.40;99.90;;;;;;5002791;28;20432;-61
2023/07/13 08:59:21;;;;;;;6.20;1.85;;;20.50;99.90;;;;;;5012455;28;20022;-61
2023/07/13 09:02:06;;;;;;;8.57;2.33;;;20.50;99.90;;;;;;5006475;28;20044;-61
2023/07/13 09:04:42;;;;;;;7.57;2.65;;;20.70;99.90;;;;;;5010391;28;20396;-61
2023/07/13 09:07:28;;;;;;;8.88;2.70;;;20.80;99.90;;;;;;5006467;28;20029;-62
2023/07/13 09:09:59;;;;;;;;;;;20.90;99.90;;;;;;5009139;28;20025;-61
2023/07/13 09:12:31;;;;;;;4.00;2.13;;;20.80;99.90;;;;;;5009081;28;19912;-61
2023/07/13 09:14:58;;;;;;;4.18;2.10;;;20.80;99.90;;;;;;5008873;28;20026;-62
2023/07/13 09:17:29;;;;;;;4.63;1.73;;;20.80;99.90;;;;;;5008616;28;20068;-61
2023/07/13 09:20:04;;;;;;;4.60;2.00;;;20.80;99.90;;;;;;5006246;28;20037;-61
2023/07/13 09:22:34;;;;;;;3.33;1.80;;;20.70;99.90;;;;;;5006346;28;20028;-61
2023/07/13 09:25:21;;;;;;;5.05;1.50;;;20.60;99.90;;;;;;5005803;28;20069;-61
2023/07/13 09:27:47;;;;;;;4.50;1.85;;;20.60;99.90;;;;;;5007666;28;20491;-62
2023/07/13 09:30:13;;;;;;;4.00;1.67;;;20.60;99.90;;;;;;5003447;28;20691;-62
2023/07/13 09:32:44;;;;;;;4.90;2.17;;;20.70;99.90;;;;;;5010571;28;20014;-61
2023/07/13 09:35:18;;;;;;;3.50;2.13;;;20.70;99.90;;;;;;5006791;28;20030;-60
2023/07/13 09:37:46;;;;;;;5.72;2.28;;;20.70;99.90;;;;;;4994665;28;20713;-61
2023/07/13 09:40:22;;;;;;;9.52;3.90;;;20.80;99.90;;;;;;5005854;28;20089;-62
2023/07/13 09:42:49;;;;;;;4.28;2.00;;;20.80;99.90;;;;;;5008122;28;20068;-61
2023/07/13 09:45:27;;;;;;;8.50;2.97;;;20.90;99.90;;;;;;5011297;28;20018;-60
2023/07/13 09:48:03;;;;;;;5.97;2.10;;;20.90;99.90;;;;;;4996960;28;20049;-61
2023/07/13 09:50:29;;;;;;;4.40;2.45;;;20.90;99.90;;;;;;5010494;28;20492;-61
2023/07/13 09:52:58;;;;;;;3.58;2.05;;;21.00;99.90;;;;;;5002076;28;20026;-60
2023/07/13 09:55:35;;;;;;;5.57;2.00;;;21.10;99.90;;;;;;5011083;28;20021;-60
2023/07/13 09:58:22;;;;;;;5.30;2.67;;;21.10;99.90;;;;;;5004779;28;20087;-61
2023/07/13 10:01:04;;;;;;;5.97;2.03;;;21.30;99.90;;;;;;5005328;28;20053;-60
2023/07/13 10:03:37;;;;;;;4.90;1.88;;;21.40;99.90;;;;;;5008026;28;20033;-60
2023/07/13 10:06:17;;;;;;;4.82;1.58;;;21.40;99.90;;;;;;5003497;28;20726;-60
2023/07/13 10:08:45;;;;;;;4.10;1.80;;;21.40;99.90;;;;;;5006650;28;20033;-62
2023/07/13 10:11:22;;;;;;;5.35;2.20;;;21.40;99.90;;;;;;5003839;28;20531;-61
2023/07/13 10:13:51;;;;;;;5.53;1.75;;;21.40;99.90;;;;;;5010760;28;20033;-60
2023/07/13 10:16:18;;;;;;;2.97;1.75;;;21.40;99.90;;;;;;5003535;28;20018;-62
2023/07/13 10:18:51;;;;;;;4.22;1.73;;;21.40;99.90;;;;;;5009306;28;20014;-60
2023/07/13 10:21:20;;;;;;;3.90;1.85;;;21.40;99.90;;;;;;5004428;28;20101;-62
2023/07/13 10:23:51;;;;;;;3.45;1.50;;;21.40;99.90;;;;;;5008388;28;20137;-60
2023/07/13 10:26:23;;;;;;;4.63;2.00;;;21.30;99.90;;;;;;5019391;28;20026;-60
2023/07/13 10:28:53;;;;;;;2.95;1.45;;;21.20;99.90;;;;;;4997180;28;20046;-60
2023/07/13 10:31:19;;;;;;;2.72;1.80;;;21.20;99.90;;;;;;5009106;28;20073;-61
2023/07/13 10:33:45;;;;;;;7.50;2.38;;;21.10;99.90;;;;;;5005068;28;20366;-60
2023/07/13 10:36:30;;;;;;;4.07;2.10;;;21.10;99.90;;;;;;5004909;28;20053;-62
2023/07/13 10:38:58;;;;;;;5.30;2.30;;;21.30;99.90;;;;;;5007530;28;20022;-62
2023/07/13 10:41:27;;;;;;;3.00;1.65;;;21.50;99.90;;;;;;5008230;28;20028;-61
2023/07/13 10:43:57;;;;;;;7.70;1.70;;;21.60;99.90;;;;;;5009053;28;20524;-61
2023/07/13 10:46:27;;;;;;;2.42;1.33;;;21.60;99.90;;;;;;5009977;28;20026;-60
2023/07/13 10:48:58;;;;;;;4.10;1.75;;;21.50;99.90;;;;;;5001285;28;20042;-60
2023/07/13 10:51:25;;;;;;;2.58;1.58;;;21.40;99.90;;;;;;5009015;28;20030;-60
2023/07/13 10:54:10;;;;;;;3.55;1.75;;;21.20;99.90;;;;;;5002656;28;20517;-58
2023/07/13 10:56:36;;;;;;;6.50;1.25;;;21.10;99.90;;;;;;5010106;28;20036;-62
2023/07/13 10:59:25;;;;;;;4.10;1.80;;;21.10;99.90;;;;;;5002500;28;20143;-61
2023/07/13 11:02:05;;;;;;;10.23;2.15;;;21.10;99.90;;;;;;4992714;28;20044;-61
2023/07/13 11:04:44;;;;;;;4.10;1.55;;;21.00;99.90;;;;;;5004869;28;20145;-62
2023/07/13 11:07:19;;;;;;;4.65;2.00;;;21.10;99.90;;;;;;5004884;28;20053;-63
2023/07/13 11:09:50;;;;;;;2.88;1.77;;;21.10;99.90;;;;;;5003798;28;20109;-62
2023/07/13 11:12:28;;;;;;;6.00;2.35;;;21.00;99.90;;;;;;5004055;28;20022;-62
2023/07/13 11:15:02;;;;;;;5.97;1.73;;;20.90;99.90;;;;;;4993441;28;20068;-62
2023/07/13 11:17:27;;;;;;;4.30;1.83;;;20.90;99.90;;;;;;5002745;28;20015;-62
2023/07/13 11:20:04;;;;;;;5.72;1.95;;;21.00;99.90;;;;;;5009638;28;20100;-60
2023/07/13 11:22:43;;;;;;;4.10;1.73;;;21.30;99.90;;;;;;5002889;28;20461;-62
2023/07/13 11:25:26;;;;;;;3.75;1.65;;;21.40;99.90;;;;;;4997405;28;20524;-62
2023/07/13 11:28:06;;;;;;;5.15;2.00;;;21.40;99.90;;;;;;4996759;28;20040;-61
2023/07/13 11:30:35;;;;;;;3.30;2.00;;;21.30;99.90;;;;;;5004884;28;20087;-59
2023/07/13 11:33:14;;;;;;;10.10;2.08;;;20.90;99.90;;;;;;5007951;28;20115;-60
2023/07/13 11:36:04;;;;;;;4.63;2.03;;;20.60;99.90;;;;;;5004497;28;20033;-59
2023/07/13 11:38:36;;;;;;;4.68;2.05;;;20.10;99.90;;;;;;5000810;28;20037;-60
2023/07/13 11:41:27;;;;;;;4.30;2.50;;;19.90;99.90;;;;;;5009527;28;20026;-60
2023/07/13 11:44:07;;;;;;;5.50;1.60;;;19.70;99.90;;;;;;5001654;28;20080;-59
2023/07/13 11:46:33;;;;;;;3.50;1.70;;;19.80;99.90;;;;;;5007834;28;20096;-60
2023/07/13 11:49:05;;;;;;;2.33;1.38;;;19.80;99.90;;;;;;4998713;28;20017;-60
2023/07/13 11:51:35;;;;;;;2.70;1.10;;;19.90;99.90;;;;;;5008353;28;20076;-60
2023/07/13 11:54:05;;;;;;;8.13;1.67;;;19.90;99.90;;;;;;4998408;28;20452;-58
2023/07/13 11:56:32;;;;;;;5.47;1.30;;;19.90;99.90;;;;;;5008847;28;20057;-60
2023/07/13 11:59:03;;;;;;;4.30;1.75;;;20.00;99.90;;;;;;5002600;28;20014;-58
2023/07/13 12:01:32;;;;;;;5.85;1.92;;;20.10;99.90;;;;;;5006739;28;20523;-60
2023/07/13 12:04:01;;;;;;;4.60;1.88;;;20.00;99.90;;;;;;5002996;28;20018;-59
2023/07/13 12:06:36;;;;;;;3.83;1.30;;;19.80;99.90;;;;;;5005986;28;20026;-60
2023/07/13 12:09:12;;;;;;;3.83;1.52;;;19.50;99.90;;;;;;5003574;28;20100;-59
2023/07/13 12:11:40;;;;;;;7.05;2.22;;;19.30;99.90;;;;;;5006365;28;20081;-62
2023/07/13 12:14:05;;;;;;;10.45;3.03;;;19.00;99.90;;;;;;5002665;28;20045;-67
2023/07/13 12:16:32;;;;;;;8.57;2.72;;;18.60;99.90;;;;;;5005480;28;20500;-67
2023/07/13 12:19:02;;;;;;;4.50;2.42;;;18.40;99.90;;;;;;5004424;28;20037;-66
2023/07/13 12:21:38;;;;;;;7.00;2.60;;;18.20;99.90;;;;;;5004562;28;20019;-63
2023/07/13 12:24:04;;;;;;;;;;;18.00;99.90;;;;;;5004587;28;20164;-64
2023/07/13 12:26:31;;;;;;;10.80;2.42;;;17.80;99.90;;;;;;5003746;28;19993;-63
2023/07/13 12:29:00;;;;;;;4.28;1.70;;;17.70;99.90;;;;;;4996083;28;20046;-64
2023/07/13 12:31:30;;;;;;;3.55;1.63;;;17.60;99.90;;;;;;5005011;28;20050;-64
2023/07/13 12:34:08;;;;;;;4.85;2.20;;;17.50;99.90;;;;;;5003934;28;20014;-65
2023/07/13 12:36:37;;;;;;;3.50;1.67;;;17.50;99.90;;;;;;5002650;28;20572;-64
2023/07/13 12:39:21;;;;;;;2.58;1.17;;;17.30;99.90;;;;;;5007358;28;20201;-64
2023/07/13 12:41:48;;;;;;;3.70;1.48;;;17.20;99.90;;;;;;5004916;28;20481;-63
2023/07/13 12:44:17;;;;;;;3.95;1.50;;;17.20;99.90;;;;;;5007733;28;20557;-63
2023/07/13 12:46:55;;;;;;;1.67;1.40;;;17.10;99.90;;;;;;5005827;28;20053;-63
2023/07/13 12:49:24;;;;;;;3.88;1.38;;;17.10;99.90;;;;;;5006661;28;20440;-62
2023/07/13 12:51:51;;;;;;;4.03;1.60;;;17.30;99.90;;;;;;4985243;28;20053;-61
2023/07/13 12:54:18;;;;;;;3.60;2.10;;;17.40;99.90;;;;;;5001962;28;20101;-62